Time;durP1;ratioP1;P1;durP2;ratioP2;P2;SDS_P1;SDS_P2;PMS_P1;PMS_P2;Temp;Humidity;BMP_temperature;BMP_pressure;BME280_temperature;BME280_humidity;BME280_pressure;Samples;Min_cycle;Max_cycle;Signal;HPM_P1;HPM_P2
2022/03/31 00:00:00;;;;;;;;;;;7.20;99.90;;;6.41;100.00;95429.72;5020825;28;20513;-83
2022/03/31 00:02:25;;;;;;;;;;;7.20;99.90;;;6.39;100.00;95428.09;5004141;28;19924;-83
2022/03/31 00:04:51;;;;;;;;;;;7.20;99.90;;;6.38;100.00;95427.25;5005456;28;19924;-85
2022/03/31 00:07:16;;;;;;;;;;;7.20;99.90;;;6.44;100.00;95432.19;5006052;28;19940;-84
2022/03/31 00:09:42;;;;;;;;;;;7.20;99.90;;;6.26;100.00;95397.34;5035112;28;20399;-85
2022/03/31 00:12:09;;;;;;;;;;;7.20;99.90;;;6.64;100.00;95457.34;5004258;28;20103;-84
2022/03/31 00:14:35;;;;;;;;;;;7.30;99.90;;;6.56;100.00;95435.91;5022427;28;20003;-84
2022/03/31 00:17:00;;;;;;;;;;;7.30;99.90;;;6.66;100.00;95444.16;5005334;28;20012;-84
2022/03/31 00:19:26;;;;;;;;;;;7.30;99.90;;;6.41;100.00;95408.78;5020738;28;19974;-84
2022/03/31 00:21:52;;;;;;;;;;;7.30;99.90;;;6.14;100.00;95361.34;5020641;28;19924;-84
2022/03/31 00:24:17;;;;;;;;;;;7.20;99.90;;;6.69;100.00;95438.75;5021032;28;19917;-84
2022/03/31 00:26:43;;;;;;;;;;;7.30;99.90;;;6.38;100.00;95382.75;5041559;28;20470;-85
2022/03/31 00:29:08;;;;;;;;;;;7.30;99.90;;;6.25;100.00;95355.53;5020885;28;20019;-83
2022/03/31 00:31:34;;;;;;;;;;;7.30;99.90;;;6.64;100.00;95420.66;5034559;28;19917;-84
2022/03/31 00:34:00;;;;;;;;;;;7.30;99.90;;;6.43;100.00;95396.44;5035454;28;20305;-83
2022/03/31 00:36:25;;;;;;;;;;;7.30;99.90;;;6.59;100.00;95422.69;5017551;28;19982;-84
2022/03/31 00:41:37;;;;;;;;;;;7.30;99.90;;;6.44;100.00;95392.03;5022555;28;19924;-84
2022/03/31 00:44:04;;;;;;;;;;;7.20;99.90;;;6.44;100.00;95402.53;5003741;28;20362;-83
2022/03/31 00:46:30;;;;;;;;;;;7.20;99.90;;;6.42;100.00;95386.88;5023528;28;20274;-84
2022/03/31 00:48:56;;;;;;;;;;;7.10;99.90;;;6.27;100.00;95383.31;5022005;28;19925;-84
2022/03/31 00:51:21;;;;;;;;;;;7.00;99.90;;;6.24;100.00;95380.00;5005009;28;20302;-84
2022/03/31 00:53:47;;;;;;;;;;;7.00;99.90;;;6.06;100.00;95353.03;5005528;28;19921;-84
2022/03/31 00:56:13;;;;;;;;;;;6.90;99.90;;;6.09;100.00;95371.19;5021787;28;20394;-84
2022/03/31 00:58:39;;;;;;;;;;;6.90;99.90;;;6.03;100.00;95371.47;5004252;28;19920;-84
2022/03/31 01:01:04;;;;;;;;;;;6.80;99.90;;;5.79;100.00;95335.16;5022499;28;19960;-84
2022/03/31 01:03:30;;;;;;;;;;;6.80;99.90;;;6.03;100.00;95376.72;5022326;28;23178;-85
2022/03/31 01:05:56;;;;;;;;;;;6.70;99.90;;;5.66;100.00;95336.72;5005394;28;19983;-84
2022/03/31 01:08:22;;;;;;;;;;;6.70;99.90;;;5.99;100.00;95390.91;5033542;28;20007;-83
2022/03/31 01:10:49;;;;;;;;;;;6.70;99.90;;;5.98;100.00;95389.22;5004022;28;20317;-84
2022/03/31 01:13:14;;;;;;;;;;;6.60;99.90;;;5.76;100.00;95358.88;5020112;28;19925;-84
2022/03/31 01:15:40;;;;;;;;;;;6.60;99.90;;;5.76;100.00;95358.88;5020583;28;19986;-84
2022/03/31 01:18:06;;;;;;;;;;;6.60;99.90;;;5.77;100.00;95351.88;5018636;28;19929;-83
2022/03/31 01:20:33;;;;;;;;;;;6.60;99.90;;;5.53;100.00;95326.88;5037840;28;19945;-83
2022/03/31 01:22:59;;;;;;;;;;;6.60;99.90;;;5.93;100.00;95384.16;5022890;28;20348;-84
2022/03/31 01:25:25;;;;;;;;;;;6.60;99.90;;;5.84;100.00;95369.78;5001851;28;19924;-85
2022/03/31 01:27:51;;;;;;;;;;;6.60;99.90;;;5.86;100.00;95370.56;5041007;28;19920;-84
2022/03/31 01:30:19;;;;;;;;;;;6.60;99.90;;;5.91;100.00;95368.56;5025714;28;19929;-83
2022/03/31 01:32:45;;;;;;;;;;;6.60;99.90;;;5.90;100.00;95348.56;5033297;28;20012;-85
2022/03/31 01:35:11;;;;;;;;;;;6.70;99.90;;;5.81;100.00;95335.94;5009150;28;20011;-84
2022/03/31 01:37:37;;;;;;;;;;;6.70;99.90;;;5.86;100.00;95326.09;5004395;28;19960;-84
2022/03/31 01:40:04;;;;;;;;;;;6.70;99.90;;;5.90;100.00;95337.22;5021234;28;20305;-83
2022/03/31 01:42:30;;;;;;;;;;;6.70;99.90;;;6.02;100.00;95359.34;5006728;28;19928;-84
2022/03/31 01:44:56;;;;;;;;;;;6.70;99.90;;;5.82;100.00;95328.94;5007410;28;19920;-84
2022/03/31 01:47:22;;;;;;;;;;;6.70;99.90;;;5.97;100.00;95356.13;5004861;28;20180;-83
2022/03/31 01:49:48;;;;;;;;;;;6.70;99.90;;;5.79;100.00;95335.16;5004468;28;19921;-84
2022/03/31 01:52:13;;;;;;;;;;;6.60;99.90;;;5.88;100.00;95342.53;5047893;28;19928;-84
2022/03/31 01:54:41;;;;;;;;;;;6.60;99.90;;;5.69;100.00;95315.66;5019728;28;19932;-84
2022/03/31 01:57:06;;;;;;;;;;;6.50;99.90;;;5.66;100.00;95308.78;5005011;28;19921;-84
2022/03/31 01:59:37;;;;;;;;;;;6.50;99.90;;;5.89;100.00;95339.00;5003504;28;19942;-84
2022/03/31 02:02:04;;;;;;;;;;;6.50;99.90;;;5.74;100.00;95316.25;5003108;28;20152;-83
2022/03/31 02:04:30;;;;;;;;;;;6.50;99.90;;;5.79;100.00;95326.47;5002160;28;19969;-84
2022/03/31 02:06:56;;;;;;;;;;;6.50;99.90;;;5.86;100.00;95331.31;5037061;28;19925;-84
2022/03/31 02:09:22;;;;;;;;;;;6.50;99.90;;;5.81;100.00;95330.69;5019586;28;19932;-83
2022/03/31 02:11:47;;;;;;;;;;;6.50;99.90;;;5.67;100.00;95307.03;5004104;28;20003;-84
2022/03/31 02:14:13;;;;;;;;;;;6.50;99.90;;;5.77;100.00;95323.94;5019735;28;20028;-84
2022/03/31 02:16:39;;;;;;;;;;;6.50;99.90;;;5.62;100.00;95293.34;5050939;28;20008;-84
2022/03/31 02:19:05;;;;;;;;;;;6.50;99.90;;;5.65;100.00;95306.25;5003161;28;20377;-83
2022/03/31 02:21:30;;;;;;;;;;;6.40;99.90;;;5.52;100.00;95283.34;5019393;28;19924;-84
2022/03/31 02:23:56;;;;;;;;;;;6.40;99.90;;;5.55;100.00;95293.66;5020219;28;19916;-84
2022/03/31 02:26:22;;;;;;;;;;;6.40;99.90;;;5.58;100.00;95303.13;5019760;28;19921;-83
2022/03/31 02:28:47;;;;;;;;;;;6.40;99.90;;;5.67;100.00;95315.72;5023140;28;19994;-84
2022/03/31 02:31:15;;;;;;;;;;;6.30;99.90;;;5.52;100.00;95306.03;5006147;28;19932;-83
2022/03/31 02:33:41;;;;;;;;;;;6.30;99.90;;;5.27;100.00;95275.06;5022746;28;20021;-84
2022/03/31 02:36:07;;;;;;;;;;;6.20;99.90;;;5.36;100.00;95298.13;5035562;28;20016;-83
2022/03/31 02:38:34;;;;;;;;;;;6.20;99.90;;;5.12;100.00;95259.22;5004491;28;19935;-84
2022/03/31 02:41:01;;;;;;;;;;;6.10;99.90;;;5.39;100.00;95313.66;5004809;28;20002;-83
2022/03/31 02:43:27;;;;;;;;;;;6.10;99.90;;;5.27;100.00;95298.56;5023548;28;19999;-84
2022/03/31 02:45:52;;;;;;;;;;;6.10;99.90;;;5.37;100.00;95312.06;5005337;28;19940;-83
2022/03/31 02:48:18;;;;;;;;;;;6.00;99.90;;;5.28;100.00;95305.50;5024337;28;20008;-84
2022/03/31 02:50:44;;;;;;;;;;;6.00;99.90;;;5.23;100.00;95297.03;5029783;28;20410;-84
2022/03/31 02:55:54;;;;;;;;;;;6.00;99.90;;;5.02;100.00;95263.19;5020938;28;20464;-83
2022/03/31 02:58:19;;;;;;;;;;;5.90;99.90;;;4.97;100.00;95260.84;5020274;28;19929;-83
2022/03/31 03:00:45;;;;;;;;;;;5.90;99.90;;;4.91;100.00;95249.84;5001793;28;19924;-83
2022/03/31 03:03:11;;;;;;;;;;;5.90;99.90;;;5.04;100.00;95281.41;5005397;28;20405;-83
2022/03/31 03:05:37;;;;;;;;;;;5.80;99.90;;;5.00;100.00;95266.81;5019446;28;19921;-83
2022/03/31 03:08:03;;;;;;;;;;;5.80;99.90;;;4.99;100.00;95279.03;5007275;28;19921;-83
2022/03/31 03:10:29;;;;;;;;;;;5.80;99.90;;;4.82;100.00;95261.56;5019224;28;20394;-83
2022/03/31 03:12:57;;;;;;;;;;;5.70;99.90;;;4.87;100.00;95270.03;5004067;28;19924;-83
2022/03/31 03:15:25;;;;;;;;;;;5.70;99.90;;;4.88;100.00;95276.09;5010144;28;19969;-84
2022/03/31 03:17:50;;;;;;;;;;;5.70;99.90;;;4.83;100.00;95267.63;5021187;28;19924;-83
2022/03/31 03:20:17;;;;;;;;;;;5.60;99.90;;;4.77;100.00;95263.56;5003132;28;20416;-83
2022/03/31 03:22:47;;;;;;;;;;;5.60;99.90;;;4.87;100.00;95279.63;5022071;28;19916;-83
2022/03/31 03:25:15;;;;;;;;;;;5.70;99.90;;;4.75;100.00;95271.44;5008613;28;19921;-83
2022/03/31 03:27:41;;;;;;;;;;;5.60;99.90;;;4.79;100.00;95282.59;5005677;28;20394;-83
2022/03/31 03:30:08;;;;;;;;;;;5.60;99.90;;;4.52;100.00;95222.09;5007115;28;19971;-83
2022/03/31 03:32:36;;;;;;;;;;;5.60;99.90;;;4.42;100.00;95200.84;5023899;28;19916;-83
2022/03/31 03:35:09;;;;;;;;;;;5.60;99.90;;;4.78;100.00;95266.09;5024860;28;19924;-83
2022/03/31 03:37:37;;;;;;;;;;;5.60;99.90;;;4.84;100.00;95270.16;5007762;28;19960;-83
2022/03/31 03:40:05;;;;;;;;;;;5.60;99.90;;;4.70;100.00;95251.72;5006007;28;19988;-83
2022/03/31 03:42:31;;;;;;;;;;;5.60;99.90;;;4.73;100.00;95262.84;5009853;28;19956;-83
2022/03/31 03:44:57;;;;;;;;;;;5.60;99.90;;;4.86;100.00;95276.16;5005865;28;20008;-83
2022/03/31 03:47:23;;;;;;;;;;;5.60;99.90;;;4.64;100.00;95236.34;5005111;28;19932;-83
2022/03/31 03:49:49;;;;;;;;;;;5.60;99.90;;;4.77;100.00;95263.56;5005305;28;19936;-83
2022/03/31 03:52:15;;;;;;;;;;;5.50;99.90;;;4.77;100.00;95277.47;5041319;28;19916;-83
2022/03/31 03:54:41;;;;;;;;;;;5.50;99.90;;;4.59;100.00;95244.38;5035950;28;19925;-83
2022/03/31 03:57:07;;;;;;;;;;;5.50;99.90;;;4.52;100.00;95235.16;5007396;28;19917;-83
2022/03/31 03:59:33;;;;;;;;;;;5.60;99.90;;;4.53;100.00;95219.44;5005073;28;20263;-83
2022/03/31 04:02:02;;;;;;;;;;;5.60;99.90;;;4.77;100.00;95258.31;5019441;28;20017;-83
2022/03/31 04:04:29;;;;;;;;;;;5.50;99.90;;;4.83;100.00;95265.88;5016965;28;19917;-83
2022/03/31 04:06:58;;;;;;;;;;;5.50;99.90;;;4.69;100.00;95260.47;5002548;28;20652;-83
2022/03/31 04:09:24;;;;;;;;;;;5.50;99.90;;;4.55;100.00;95245.47;5000923;28;19934;-83
2022/03/31 04:11:50;;;;;;;;;;;5.40;99.90;;;4.67;100.00;95262.31;5018928;28;19951;-83
2022/03/31 04:14:17;;;;;;;;;;;5.40;99.90;;;4.68;100.00;95248.34;5014766;28;19931;-83
2022/03/31 04:16:43;;;;;;;;;;;5.50;99.90;;;4.52;100.00;95236.03;5015601;28;19920;-83
2022/03/31 04:19:09;;;;;;;;;;;5.50;99.90;;;4.49;100.00;95244.00;5004539;28;20360;-83
2022/03/31 04:21:37;;;;;;;;;;;5.40;99.90;;;4.61;100.00;95257.38;5047139;28;19962;-83
2022/03/31 04:24:04;;;;;;;;;;;5.40;99.90;;;4.51;100.00;95236.09;5003074;28;19921;-83
2022/03/31 04:26:30;;;;;;;;;;;5.40;99.90;;;4.74;100.00;95256.72;4999282;28;19954;-83
2022/03/31 04:28:56;;;;;;;;;;;5.50;99.90;;;4.42;100.00;95224.31;5020017;28;19924;-83
2022/03/31 04:31:21;;;;;;;;;;;5.40;99.90;;;4.38;100.00;95215.81;5005965;28;19942;-83
2022/03/31 04:33:47;;;;;;;;;;;5.40;99.90;;;4.53;100.00;95249.91;5017162;28;19927;-83
2022/03/31 04:36:13;;;;;;;;;;;5.40;99.90;;;4.47;100.00;95239.75;5020334;28;19921;-83
2022/03/31 04:38:39;;;;;;;;;;;5.30;99.90;;;4.54;100.00;95259.41;4999946;28;19960;-83
2022/03/31 04:41:05;;;;;;;;;;;5.30;99.90;;;4.31;100.00;95226.59;5015399;28;20297;-83
2022/03/31 04:43:30;;;;;;;;;;;5.30;99.90;;;4.50;100.00;95244.84;5013178;28;20784;-84
2022/03/31 04:45:56;;;;;;;;;;;5.30;99.90;;;4.14;100.00;95203.91;5000177;28;20046;-83
2022/03/31 04:48:21;;;;;;;;;;;5.20;99.90;;;4.43;100.00;95257.31;5022727;28;19928;-83
2022/03/31 04:50:47;;;;;;;;;;;5.20;99.90;;;4.15;100.00;95211.66;5033617;28;19924;-83
2022/03/31 04:53:14;;;;;;;;;;;5.20;99.90;;;4.05;100.00;95194.72;5034139;28;20394;-83
2022/03/31 04:55:40;;;;;;;;;;;5.20;99.90;;;4.47;100.00;95264.09;5001783;28;20430;-83
2022/03/31 04:58:06;;;;;;;;;;;5.20;99.90;;;4.20;100.00;95208.84;5017110;28;20425;-83
2022/03/31 05:00:32;;;;;;;;;;;5.20;99.90;;;4.30;100.00;95225.75;5031293;28;19924;-83
2022/03/31 05:02:59;;;;;;;;;;;5.20;99.90;;;4.47;100.00;95266.72;5005575;28;19920;-83
2022/03/31 05:05:25;;;;;;;;;;;5.20;99.90;;;4.34;100.00;95240.34;5001876;28;19917;-82
2022/03/31 05:07:51;;;;;;;;;;;5.20;99.90;;;4.12;100.00;95208.34;5022777;28;19920;-83
2022/03/31 05:10:17;;;;;;;;;;;5.20;99.90;;;4.16;100.00;95217.72;5018859;28;19951;-83
2022/03/31 05:12:43;;;;;;;;;;;5.10;99.90;;;4.29;100.00;95247.56;5017679;28;19966;-83
2022/03/31 05:15:09;;;;;;;;;;;5.10;99.90;;;4.25;100.00;95259.03;5019494;28;20489;-83
2022/03/31 05:17:35;;;;;;;;;;;5.10;99.90;;;4.33;100.00;95246.47;5039464;22;19939;-47
2022/03/31 05:20:09;;;;;;;;;;;5.10;99.90;;;4.43;100.00;95249.50;5067661;28;19936;-49
2022/03/31 05:22:38;;;;;;;;;;;5.10;99.90;;;4.44;100.00;95252.97;5052505;28;20585;-49
2022/03/31 05:25:07;;;;;;;;;;;5.10;99.90;;;4.47;100.00;95255.41;5054155;28;20296;-50
2022/03/31 05:27:33;;;;;;;;;;;5.20;99.90;;;4.47;100.00;95253.66;5053939;28;20365;-50
2022/03/31 05:29:58;;;;;;;;;;;5.20;99.90;;;4.52;100.00;95253.44;5050203;28;20326;-51
2022/03/31 05:32:24;;;;;;;;;;;5.20;99.90;;;4.53;100.00;95255.13;5052159;28;20010;-50
2022/03/31 05:34:51;;;;;;;;;;;5.20;99.90;;;4.50;100.00;95245.66;5057079;28;19916;-50
2022/03/31 05:37:17;;;;;;;;;;;5.20;99.90;;;4.52;100.00;95241.25;5045445;28;19925;-52
2022/03/31 05:39:42;;;;;;;;;;;5.30;99.90;;;4.58;100.00;95253.16;5054095;28;20006;-48
2022/03/31 05:42:08;;;;;;;;;;;5.30;99.90;;;4.56;100.00;95241.94;5052504;28;20370;-52
2022/03/31 05:44:34;;;;;;;;;;;5.30;99.90;;;4.63;100.00;95248.56;5052496;28;19994;-49
2022/03/31 05:46:59;;;;;;;;;;;5.30;99.90;;;4.62;100.00;95238.19;5052842;28;19924;-49
2022/03/31 05:49:25;;;;;;;;;;;5.30;99.90;;;4.65;100.00;95248.47;5051594;28;19960;-47
2022/03/31 05:51:50;;;;;;;;;;;5.30;99.90;;;4.68;100.00;95243.09;5053065;28;19917;-49
2022/03/31 05:54:16;;;;;;;;;;;5.40;99.90;;;4.68;100.00;95241.34;5050671;28;20101;-49
2022/03/31 05:56:43;;;;;;;;;;;5.40;99.90;;;4.69;100.00;95245.66;5051693;28;20011;-48
2022/03/31 05:59:08;;;;;;;;;;;5.40;99.90;;;4.69;100.00;95242.19;5044919;28;19924;-49
2022/03/31 06:01:34;;;;;;;;;;;5.40;99.90;;;4.70;100.00;95249.97;5049912;28;20240;-52
2022/03/31 06:04:00;;;;;;;;;;;5.50;99.90;;;4.73;100.00;95249.78;5051767;28;20370;-50
2022/03/31 06:06:25;;;;;;;;;;;5.50;99.90;;;4.76;100.00;95257.50;5050154;28;20053;-48
2022/03/31 06:08:51;;;;;;;;;;;5.50;99.90;;;4.74;100.00;95256.72;5051425;28;20015;-49
2022/03/31 06:11:17;;;;;;;;;;;5.50;99.90;;;4.78;100.00;95249.59;5046972;28;20409;-48
2022/03/31 06:13:43;;;;;;;;;;;5.50;99.90;;;4.67;100.00;95237.06;5052363;28;19929;-50
2022/03/31 06:16:10;;;;;;;;;;;5.50;99.90;;;4.73;100.00;95241.97;5053813;28;20456;-47
2022/03/31 06:18:36;;;;;;;;;;;5.50;99.90;;;4.74;100.00;95243.66;5051759;28;19978;-49
2022/03/31 06:21:02;;;;;;;;;;;5.50;99.90;;;4.85;100.00;95255.38;5049562;28;19929;-51
2022/03/31 06:23:28;;;;;;;;;;;5.60;99.90;;;4.83;100.00;95244.13;5045334;28;19924;-47
2022/03/31 06:25:53;;;;;;;;;;;5.60;99.90;;;4.93;100.00;95245.38;5049727;28;19916;-49
2022/03/31 06:28:19;;;;;;;;;;;5.60;99.90;;;4.94;100.00;95250.53;5047791;28;19924;-49
2022/03/31 06:30:48;;;;;;;;;;;5.70;99.90;;;4.90;100.00;95241.16;5051836;28;19968;-41
2022/03/31 06:33:18;;;;;;;;;;;5.70;99.90;;;4.91;100.00;95236.78;5053558;28;20518;-44
2022/03/31 06:35:44;;;;;;;;;;;5.70;99.90;;;5.03;100.00;95237.94;5050467;28;19925;-45
2022/03/31 06:38:11;;;;;;;;;;;5.70;99.90;;;5.09;100.00;95245.47;5051251;28;20453;-39
2022/03/31 06:40:38;;;;;;;;;;;5.80;99.90;;;5.12;100.00;95243.53;5042541;28;20345;-40
2022/03/31 06:43:04;;;;;;;;;;;5.80;99.90;;;5.09;100.00;95242.84;5051273;28;19925;-44
2022/03/31 06:45:31;;;;;;;;;;;5.80;99.90;;;5.07;100.00;95248.16;5053276;28;20449;-41
2022/03/31 06:47:58;;;;;;;;;;;5.80;99.90;;;5.12;100.00;95243.53;5051596;28;19955;-41
2022/03/31 06:50:23;;;;;;;;;;;5.80;99.90;;;5.11;100.00;95235.78;5052618;28;20015;-42
2022/03/31 06:52:50;;;;;;;;;;;5.90;99.90;;;5.24;100.00;95243.84;5052636;28;19917;-39
2022/03/31 06:55:15;;;;;;;;;;;5.90;99.90;;;5.33;100.00;95246.84;5053065;28;20542;-40
2022/03/31 06:57:41;;;;;;;;;;;6.00;99.90;;;5.39;100.00;95245.69;5055177;28;20262;-46
2022/03/31 07:00:07;;;;;;;;;;;6.00;99.90;;;5.37;100.00;95239.69;5049128;28;19928;-43
2022/03/31 07:02:33;;;;;;;;;;;6.10;99.90;;;5.45;100.00;95242.75;5050198;28;19924;-44
2022/03/31 07:04:59;;;;;;;;;;;6.10;99.90;;;5.44;100.00;95246.31;5056020;28;19978;-44
2022/03/31 07:07:24;;;;;;;;;;;6.20;99.90;;;5.45;100.00;95237.53;5056439;28;20053;-45
2022/03/31 07:09:51;;;;;;;;;;;6.20;99.90;;;5.52;100.00;95245.91;5054918;28;20030;-44
2022/03/31 07:12:17;;;;;;;;;;;6.30;99.90;;;5.59;100.00;95233.38;5054784;28;19955;-42
2022/03/31 07:14:44;;;;;;;;;;;6.30;99.90;;;5.68;100.00;95231.13;5057816;28;20324;-43
2022/03/31 07:17:10;;;;;;;;;;;6.40;99.90;;;5.76;100.00;95229.88;5047918;28;19926;-39
2022/03/31 07:19:35;;;;;;;;;;;6.50;99.90;;;5.81;100.00;95231.31;5047219;28;20397;-40
2022/03/31 07:22:02;;;;;;;;;;;6.50;99.90;;;5.88;100.00;95227.44;5051285;28;19927;-42
2022/03/31 07:24:27;;;;;;;;;;;6.60;99.90;;;5.92;100.00;95218.53;5053672;28;19924;-41
2022/03/31 07:26:53;;;;;;;;;;;6.60;99.90;;;6.12;100.00;95232.34;5054837;28;19916;-47
2022/03/31 07:29:18;;;;;;;;;;;6.70;99.90;;;6.08;100.00;95222.94;5050715;28;19924;-40
2022/03/31 07:31:44;;;;;;;;;;;6.70;99.90;;;6.03;100.00;95225.84;5055267;28;19939;-42
2022/03/31 07:34:10;;;;;;;;;;;6.70;99.90;;;5.90;100.00;95217.75;5053168;28;20019;-40
2022/03/31 07:36:35;;;;;;;;;;;6.70;99.90;;;5.86;100.00;95212.78;5055591;28;20440;-42
2022/03/31 07:39:01;;;;;;;;;;;6.70;99.90;;;5.87;100.00;95224.94;5056895;28;20019;-44
2022/03/31 07:41:26;;;;;;;;;;;6.60;99.90;;;5.83;100.00;95216.41;5054442;28;20224;-44
2022/03/31 07:43:52;;;;;;;;;;;6.60;99.90;;;5.89;100.00;95223.06;5054544;28;20007;-40
2022/03/31 07:46:18;;;;;;;;;;;6.60;99.90;;;5.87;100.00;95211.84;5049259;28;20282;-41
2022/03/31 07:48:44;;;;;;;;;;;6.50;99.90;;;5.95;100.00;95221.91;5058188;28;20306;-41
2022/03/31 07:51:09;;;;;;;;;;;6.60;99.90;;;6.08;100.00;95217.72;5053372;28;20401;-43
2022/03/31 07:53:35;;;;;;;;;;;6.70;99.90;;;5.99;100.00;95203.34;5051672;28;19972;-44
2022/03/31 07:56:04;;;;;;;;;;;6.70;99.90;;;6.14;100.00;95217.41;5050019;28;20537;-41
2022/03/31 07:58:30;;;;;;;;;;;6.80;99.90;;;6.20;100.00;95214.44;5052518;28;20015;-46
2022/03/31 08:00:56;;;;;;;;;;;6.90;99.90;;;6.27;100.00;95221.03;5051586;28;19921;-41
2022/03/31 08:03:24;;;;;;;;;;;6.90;99.90;;;6.27;100.00;95220.19;5051598;28;20260;-40
2022/03/31 08:05:51;;;;;;;;;;;7.00;99.90;;;6.28;100.00;95220.09;5050353;28;20743;-44
2022/03/31 08:08:19;;;;;;;;;;;7.00;99.90;;;6.17;100.00;95214.59;5047141;28;19924;-43
2022/03/31 08:10:45;;;;;;;;;;;7.00;99.90;;;6.21;100.00;95212.66;5049909;28;20935;-42
2022/03/31 08:13:10;;;;;;;;;;;6.90;99.90;;;6.27;100.00;95223.66;5055901;28;19924;-47
2022/03/31 08:15:37;;;;;;;;;;;6.90;99.90;;;6.22;100.00;95207.34;5049391;28;19921;-44
2022/03/31 08:18:04;;;;;;;;;;;6.90;99.90;;;6.35;100.00;95223.22;5051766;28;20338;-41
2022/03/31 08:20:29;;;;;;;;;;;7.00;99.90;;;6.39;100.00;95216.91;5048102;28;19929;-40
2022/03/31 08:22:55;;;;;;;;;;;7.00;99.90;;;6.43;100.00;95215.78;5053710;28;19974;-42
2022/03/31 08:25:21;;;;;;;;;;;7.10;99.90;;;6.36;100.00;95200.53;5054639;28;20033;-42
2022/03/31 08:27:48;;;;;;;;;;;7.10;99.90;;;6.46;100.00;95212.16;5051472;28;19916;-47
2022/03/31 08:30:19;;;;;;;;;;;7.10;99.90;;;6.45;100.00;95210.47;5054105;28;19920;-43
2022/03/31 08:32:46;;;;;;;;;;;7.10;99.90;;;6.36;100.00;95195.28;5050895;28;19920;-39
2022/03/31 08:35:13;;;;;;;;;;;7.10;99.90;;;6.41;100.00;95209.81;5048770;28;20022;-44
2022/03/31 08:37:39;;;;;;;;;;;7.10;99.90;;;6.32;100.00;95202.47;5051508;28;20046;-42
2022/03/31 08:40:07;;;;;;;;;;;7.10;99.90;;;6.37;100.00;95207.44;5050812;28;20408;-41
2022/03/31 08:42:33;;;;;;;;;;;7.00;99.90;;;6.40;100.00;95208.09;5052701;28;19924;-40
2022/03/31 08:44:59;;;;;;;;;;;7.00;99.90;;;6.41;100.00;95208.97;5055095;28;20314;-44
2022/03/31 08:47:26;;;;;;;;;;;7.10;99.90;;;6.45;100.00;95206.06;5044143;28;19923;-41
2022/03/31 08:49:55;;;;;;;;;;;7.10;99.90;;;6.52;100.00;95198.72;5036170;28;20090;-46
2022/03/31 08:52:20;;;;;;;;;;;7.20;99.90;;;6.66;100.00;95197.97;5056196;28;19925;-40
2022/03/31 08:54:46;;;;;;;;;;;7.30;99.90;;;6.80;100.00;95197.16;5053015;28;19924;-42
2022/03/31 08:57:12;;;;;;;;;;;7.40;99.90;;;6.96;100.00;95197.97;5057874;28;20244;-40
2022/03/31 08:59:37;;;;;;;;;;;7.60;99.90;;;7.17;100.00;95189.78;5056226;28;19928;-42
2022/03/31 09:02:03;;;;;;;;;;;7.90;99.90;;;7.42;100.00;95186.56;5048546;28;19959;-41
2022/03/31 09:04:29;;;;;;;;;;;8.20;99.90;;;7.87;100.00;95183.88;5048123;28;19916;-43
2022/03/31 09:07:06;;;;;;;;;;;8.50;99.90;;;8.11;96.79;95184.97;5053643;28;19982;-40
2022/03/31 09:09:43;;;;;;;;;;;8.80;99.90;;;8.37;94.96;95179.84;5053731;28;19956;-41
2022/03/31 09:12:08;;;;;;;;;;;9.10;99.90;;;8.56;92.87;95185.66;5049927;28;20386;-39
2022/03/31 09:14:34;;;;;;;;;;;9.30;99.90;;;8.64;91.79;95195.66;5050041;28;19917;-42
2022/03/31 09:17:12;;;;;;;;;;;9.50;99.90;;;8.64;91.00;95197.47;5053361;28;19925;-41
2022/03/31 09:19:38;;;;;;;;;;;9.50;99.90;;;8.60;89.85;95199.44;5048983;28;22269;-41
2022/03/31 09:22:04;;;;;;;;;;;9.40;99.90;;;8.59;90.07;95198.56;5050658;28;19928;-42
2022/03/31 09:24:31;;;;;;;;;;;9.20;99.90;;;8.40;89.62;95198.06;5057228;28;19916;-40
2022/03/31 09:26:58;;;;;;;;;;;9.10;99.90;;;8.11;91.43;95198.09;5054208;28;19924;-43
2022/03/31 09:29:26;;;;;;;;;;;8.90;99.90;;;8.13;92.54;95203.22;5055303;28;19916;-41
2022/03/31 09:31:53;;;;;;;;;;;8.80;99.90;;;8.04;93.69;95162.69;5056512;28;19917;-42
2022/03/31 09:34:19;;;;;;;;;;;8.90;99.90;;;8.13;92.65;95185.72;5046909;28;19931;-39
2022/03/31 09:36:49;;;;;;;;;;;8.80;99.90;;;8.45;92.55;95185.47;5062788;28;19962;-45
2022/03/31 09:39:17;;;;;;;;;;;9.00;99.90;;;8.77;92.14;95182.56;5051498;28;19948;-43
2022/03/31 09:41:47;;;;;;;;;;;9.40;99.90;;;9.00;89.67;95164.47;5057810;28;20118;-38
2022/03/31 09:44:15;;;;;;;;;;;9.70;99.90;;;9.43;88.26;95177.34;5058288;28;19921;-40
2022/03/31 09:46:42;;;;;;;;;;;10.20;99.90;;;9.68;86.14;95174.72;5054513;28;19975;-43
2022/03/31 09:49:12;;;;;;;;;;;10.40;99.90;;;9.74;83.23;95174.31;5052748;28;19967;-45
2022/03/31 09:51:38;;;;;;;;;;;10.50;99.90;;;10.06;82.76;95176.47;5053977;28;20001;-38
2022/03/31 09:54:04;;;;;;;;;;;10.70;99.90;;;10.23;83.01;95177.06;5055577;28;19917;-43
2022/03/31 09:56:33;;;;;;;;;;;10.90;99.90;;;10.45;79.40;95168.53;5058218;28;19943;-43
2022/03/31 09:59:01;;;;;;;;;;;11.10;99.90;;;10.77;80.22;95163.53;5052349;28;19921;-42
2022/03/31 10:01:27;;;;;;;;;;;11.40;99.90;;;11.00;77.20;95163.63;5048043;28;19929;-42
2022/03/31 10:03:54;;;;;;;;;;;11.70;99.90;;;11.25;74.81;95155.56;5055470;28;19928;-41
2022/03/31 10:06:20;;;;;;;;;;;11.90;99.90;;;11.12;75.35;95156.59;5053124;28;19924;-41
2022/03/31 10:08:47;;;;;;;;;;;11.90;99.90;;;10.97;75.89;95154.16;5053347;28;19923;-43
2022/03/31 10:11:13;;;;;;;;;;;11.80;99.90;;;11.12;75.34;95159.25;5052512;28;19920;-42
2022/03/31 10:13:53;;;;;;;;;;;11.90;99.90;;;11.36;77.34;95157.41;5059339;28;20381;-43
2022/03/31 10:16:24;;;;;;;;;;;12.10;99.90;;;11.55;76.00;95151.53;5050353;28;20017;-44
2022/03/31 10:18:50;;;;;;;;;;;12.20;99.90;;;11.41;74.02;95163.19;5049829;28;19931;-42
2022/03/31 10:21:29;;;;;;;;;;;12.30;99.90;;;11.27;75.57;95156.31;5053324;28;19924;-42
2022/03/31 10:26:40;;;;;;;;;;;12.20;99.90;;;11.31;73.49;95164.81;5057839;28;20065;-46
2022/03/31 10:29:11;;;;;;;;;;;12.00;99.90;;;11.11;76.85;95155.78;5050984;28;19943;-43
2022/03/31 10:31:45;;;;;;;;;;;11.90;99.90;;;10.66;75.63;95150.31;5049746;28;20065;-45
2022/03/31 10:34:12;;;;;;;;;;;11.70;99.90;;;10.71;78.30;95142.88;5057290;28;19969;-41
2022/03/31 10:36:45;;;;;;;;;;;11.50;99.90;;;10.82;77.05;95150.00;5058837;28;19924;-41
2022/03/31 10:39:19;;;;;;;;;;;11.50;99.90;;;10.70;79.48;95151.78;5057489;28;20178;-43
2022/03/31 10:41:45;;;;;;;;;;;11.50;99.90;;;10.78;79.21;95145.91;5054740;28;20418;-41
2022/03/31 10:44:11;;;;;;;;;;;11.50;99.90;;;10.83;78.09;95149.91;5054730;28;20437;-41
2022/03/31 10:46:37;;;;;;;;;;;11.50;99.90;;;10.85;76.20;95145.34;5052568;28;20503;-40
2022/03/31 10:49:07;;;;;;;;;;;11.50;99.90;;;10.93;76.61;95147.44;5058881;28;19927;-44
2022/03/31 10:51:35;;;;;;;;;;;11.50;99.90;;;10.78;76.76;95141.47;5052612;28;19924;-41
2022/03/31 10:54:01;;;;;;;;;;;11.50;99.90;;;10.96;77.30;95141.91;5056969;28;19916;-38
2022/03/31 10:56:28;;;;;;;;;;;11.50;99.90;;;11.09;76.34;95131.31;5054925;28;19939;-40
2022/03/31 10:58:56;;;;;;;;;;;11.80;99.90;;;11.39;76.86;95138.69;5051168;28;20301;-43
2022/03/31 11:01:23;;;;;;;;;;;12.00;99.90;;;11.57;74.25;95139.06;5052114;28;20189;-41
2022/03/31 11:03:50;;;;;;;;;;;12.20;99.90;;;11.46;74.37;95134.59;5049189;28;19951;-44
2022/03/31 11:06:17;;;;;;;;;;;12.20;99.90;;;11.63;74.77;95138.59;5056346;28;19924;-43
2022/03/31 11:08:47;;;;;;;;;;;12.20;99.90;;;11.67;72.90;95127.81;5052902;28;20306;-42
2022/03/31 11:11:24;;;;;;;;;;;12.30;99.90;;;11.24;73.47;95130.13;5057193;28;19920;-46
2022/03/31 11:13:51;;;;;;;;;;;12.10;99.90;;;10.77;77.23;95131.06;5054378;28;20411;-41
2022/03/31 11:16:16;;;;;;;;;;;11.80;99.90;;;10.46;79.47;95128.91;5055955;28;20680;-42
2022/03/31 11:18:53;;;;;;;;;;;11.30;99.90;;;10.37;79.56;95124.25;5049966;28;20020;-41
2022/03/31 11:21:18;;;;;;;;;;;11.00;99.90;;;10.34;81.70;95126.28;5055770;28;19936;-44
2022/03/31 11:23:46;;;;;;;;;;;11.00;99.90;;;10.37;81.40;95120.78;5059834;28;19973;-41
2022/03/31 11:26:15;;;;;;;;;;;11.00;99.90;;;10.18;82.13;95118.63;5057636;28;19924;-45
2022/03/31 11:28:41;;;;;;;;;;;10.90;99.90;;;9.94;84.39;95117.63;5052874;28;20460;-44